sensor_id;sensor_type;location;lat;lon;timestamp;P1;durP1;ratioP1;P2;durP2;ratioP2
38557;SDS011;24333;42.626;23.308;2023-11-21T00:01:53;1.48;;;0.55;;
38557;SDS011;24333;42.626;23.308;2023-11-21T00:04:19;0.90;;;0.55;;
38557;SDS011;24333;42.626;23.308;2023-11-21T00:06:45;2.90;;;0.60;;
38557;SDS011;24333;42.626;23.308;2023-11-21T00:09:12;0.75;;;0.40;;
38557;SDS011;24333;42.626;23.308;2023-11-21T00:11:40;1.27;;;0.70;;
38557;SDS011;24333;42.626;23.308;2023-11-21T00:14:06;0.50;;;0.50;;
38557;SDS011;24333;42.626;23.308;2023-11-21T00:16:31;1.08;;;0.63;;
38557;SDS011;24333;42.626;23.308;2023-11-21T00:18:56;0.82;;;0.50;;
38557;SDS011;24333;42.626;23.308;2023-11-21T00:21:22;2.17;;;0.80;;
38557;SDS011;24333;42.626;23.308;2023-11-21T00:23:47;2.42;;;0.60;;
38557;SDS011;24333;42.626;23.308;2023-11-21T00:26:13;0.80;;;0.60;;
38557;SDS011;24333;42.626;23.308;2023-11-21T00:28:39;3.10;;;0.85;;
38557;SDS011;24333;42.626;23.308;2023-11-21T00:31:05;1.15;;;0.65;;
38557;SDS011;24333;42.626;23.308;2023-11-21T00:33:30;1.95;;;0.75;;
38557;SDS011;24333;42.626;23.308;2023-11-21T00:35:56;0.73;;;0.63;;
38557;SDS011;24333;42.626;23.308;2023-11-21T00:38:21;0.63;;;0.40;;
38557;SDS011;24333;42.626;23.308;2023-11-21T00:40:47;0.93;;;0.52;;
38557;SDS011;24333;42.626;23.308;2023-11-21T00:43:12;1.20;;;0.55;;
38557;SDS011;24333;42.626;23.308;2023-11-21T00:45:37;3.53;;;0.75;;
38557;SDS011;24333;42.626;23.308;2023-11-21T00:48:05;1.52;;;0.70;;
38557;SDS011;24333;42.626;23.308;2023-11-21T00:50:30;1.73;;;0.85;;
38557;SDS011;24333;42.626;23.308;2023-11-21T00:52:56;1.75;;;1.00;;
38557;SDS011;24333;42.626;23.308;2023-11-21T00:55:21;1.70;;;1.15;;
38557;SDS011;24333;42.626;23.308;2023-11-21T00:57:47;1.65;;;0.73;;
38557;SDS011;24333;42.626;23.308;2023-11-21T01:00:13;0.70;;;0.70;;
38557;SDS011;24333;42.626;23.308;2023-11-21T01:02:42;4.43;;;0.90;;
38557;SDS011;24333;42.626;23.308;2023-11-21T01:05:09;0.50;;;0.50;;
38557;SDS011;24333;42.626;23.308;2023-11-21T01:07:35;1.70;;;0.70;;
38557;SDS011;24333;42.626;23.308;2023-11-21T01:10:02;2.40;;;0.80;;
38557;SDS011;24333;42.626;23.308;2023-11-21T01:12:30;1.52;;;0.50;;
38557;SDS011;24333;42.626;23.308;2023-11-21T01:14:56;0.95;;;0.60;;
38557;SDS011;24333;42.626;23.308;2023-11-21T02:09:16;0.82;;;0.45;;
38557;SDS011;24333;42.626;23.308;2023-11-21T02:11:42;1.13;;;0.30;;
38557;SDS011;24333;42.626;23.308;2023-11-21T02:14:09;1.25;;;0.45;;
38557;SDS011;24333;42.626;23.308;2023-11-21T02:16:35;0.63;;;0.43;;
38557;SDS011;24333;42.626;23.308;2023-11-21T02:19:02;0.65;;;0.65;;
38557;SDS011;24333;42.626;23.308;2023-11-21T02:21:34;1.27;;;0.65;;
38557;SDS011;24333;42.626;23.308;2023-11-21T02:24:01;0.52;;;0.50;;
38557;SDS011;24333;42.626;23.308;2023-11-21T02:26:26;1.10;;;0.60;;
38557;SDS011;24333;42.626;23.308;2023-11-21T02:28:52;1.05;;;0.55;;
38557;SDS011;24333;42.626;23.308;2023-11-21T02:31:18;0.68;;;0.47;;
38557;SDS011;24333;42.626;23.308;2023-11-21T02:33:44;1.10;;;0.57;;
38557;SDS011;24333;42.626;23.308;2023-11-21T02:36:09;0.63;;;0.43;;
38557;SDS011;24333;42.626;23.308;2023-11-21T02:38:35;0.80;;;0.60;;
38557;SDS011;24333;42.626;23.308;2023-11-21T02:41:00;1.35;;;0.70;;
38557;SDS011;24333;42.626;23.308;2023-11-21T02:43:25;0.57;;;0.40;;
38557;SDS011;24333;42.626;23.308;2023-11-21T02:45:51;1.00;;;0.77;;
38557;SDS011;24333;42.626;23.308;2023-11-21T02:48:16;1.30;;;0.70;;
38557;SDS011;24333;42.626;23.308;2023-11-21T02:50:42;0.82;;;0.60;;
38557;SDS011;24333;42.626;23.308;2023-11-21T02:53:08;0.52;;;0.50;;
38557;SDS011;24333;42.626;23.308;2023-11-21T02:55:35;0.82;;;0.65;;
38557;SDS011;24333;42.626;23.308;2023-11-21T02:58:01;1.08;;;0.55;;
38557;SDS011;24333;42.626;23.308;2023-11-21T03:00:28;0.80;;;0.60;;
38557;SDS011;24333;42.626;23.308;2023-11-21T03:02:55;1.20;;;0.63;;
38557;SDS011;24333;42.626;23.308;2023-11-21T03:05:21;0.75;;;0.60;;
38557;SDS011;24333;42.626;23.308;2023-11-21T03:07:46;0.63;;;0.55;;
38557;SDS011;24333;42.626;23.308;2023-11-21T03:10:12;1.20;;;0.77;;
38557;SDS011;24333;42.626;23.308;2023-11-21T03:12:38;1.15;;;0.70;;
38557;SDS011;24333;42.626;23.308;2023-11-21T03:15:04;1.27;;;0.57;;
38557;SDS011;24333;42.626;23.308;2023-11-21T03:17:36;1.55;;;1.10;;
38557;SDS011;24333;42.626;23.308;2023-11-21T03:20:02;0.98;;;0.80;;
38557;SDS011;24333;42.626;23.308;2023-11-21T03:22:28;1.58;;;0.80;;
38557;SDS011;24333;42.626;23.308;2023-11-21T03:24:54;1.50;;;0.77;;
38557;SDS011;24333;42.626;23.308;2023-11-21T03:27:19;1.13;;;0.70;;
38557;SDS011;24333;42.626;23.308;2023-11-21T03:29:45;1.10;;;0.80;;
38557;SDS011;24333;42.626;23.308;2023-11-21T03:32:12;1.00;;;0.68;;
38557;SDS011;24333;42.626;23.308;2023-11-21T03:34:52;1.10;;;0.80;;
38557;SDS011;24333;42.626;23.308;2023-11-21T03:37:18;2.15;;;0.70;;
38557;SDS011;24333;42.626;23.308;2023-11-21T03:39:45;1.33;;;0.80;;
38557;SDS011;24333;42.626;23.308;2023-11-21T03:42:11;1.55;;;0.73;;
38557;SDS011;24333;42.626;23.308;2023-11-21T03:44:37;0.70;;;0.68;;
38557;SDS011;24333;42.626;23.308;2023-11-21T03:52:18;1.73;;;0.90;;
38557;SDS011;24333;42.626;23.308;2023-11-21T03:54:43;0.85;;;0.50;;
38557;SDS011;24333;42.626;23.308;2023-11-21T03:57:08;0.88;;;0.60;;
38557;SDS011;24333;42.626;23.308;2023-11-21T03:59:34;0.50;;;0.50;;
38557;SDS011;24333;42.626;23.308;2023-11-21T04:02:00;1.02;;;0.52;;
38557;SDS011;24333;42.626;23.308;2023-11-21T04:07:40;0.60;;;0.60;;
38557;SDS011;24333;42.626;23.308;2023-11-21T04:10:06;1.05;;;0.60;;
38557;SDS011;24333;42.626;23.308;2023-11-21T04:12:34;0.70;;;0.70;;
38557;SDS011;24333;42.626;23.308;2023-11-21T04:15:00;1.23;;;0.80;;
38557;SDS011;24333;42.626;23.308;2023-11-21T04:17:25;4.57;;;1.60;;
38557;SDS011;24333;42.626;23.308;2023-11-21T04:19:51;9.73;;;3.25;;
38557;SDS011;24333;42.626;23.308;2023-11-21T04:22:16;3.90;;;1.90;;
38557;SDS011;24333;42.626;23.308;2023-11-21T04:24:42;1.85;;;0.85;;
38557;SDS011;24333;42.626;23.308;2023-11-21T04:27:07;1.58;;;0.95;;
38557;SDS011;24333;42.626;23.308;2023-11-21T04:29:33;1.40;;;1.02;;
38557;SDS011;24333;42.626;23.308;2023-11-21T04:31:58;1.95;;;0.60;;
38557;SDS011;24333;42.626;23.308;2023-11-21T04:34:23;1.08;;;0.70;;
38557;SDS011;24333;42.626;23.308;2023-11-21T04:36:49;1.13;;;0.70;;
38557;SDS011;24333;42.626;23.308;2023-11-21T04:39:15;0.68;;;0.50;;
38557;SDS011;24333;42.626;23.308;2023-11-21T04:41:40;0.95;;;0.75;;
38557;SDS011;24333;42.626;23.308;2023-11-21T04:44:06;1.83;;;0.63;;
38557;SDS011;24333;42.626;23.308;2023-11-21T04:46:31;0.47;;;0.47;;
38557;SDS011;24333;42.626;23.308;2023-11-21T04:48:57;6.25;;;0.80;;
38557;SDS011;24333;42.626;23.308;2023-11-21T04:51:23;1.52;;;1.13;;
38557;SDS011;24333;42.626;23.308;2023-11-21T04:53:49;2.28;;;0.90;;
38557;SDS011;24333;42.626;23.308;2023-11-21T04:56:14;0.70;;;0.70;;
38557;SDS011;24333;42.626;23.308;2023-11-21T04:58:41;1.10;;;0.75;;
38557;SDS011;24333;42.626;23.308;2023-11-21T05:01:09;1.08;;;0.68;;
38557;SDS011;24333;42.626;23.308;2023-11-21T05:03:35;1.33;;;0.90;;
38557;SDS011;24333;42.626;23.308;2023-11-21T05:06:00;1.65;;;0.93;;
38557;SDS011;24333;42.626;23.308;2023-11-21T05:08:26;2.03;;;1.00;;
38557;SDS011;24333;42.626;23.308;2023-11-21T05:10:52;1.83;;;0.80;;
38557;SDS011;24333;42.626;23.308;2023-11-21T05:13:18;1.10;;;0.70;;
38557;SDS011;24333;42.626;23.308;2023-11-21T05:15:45;0.65;;;0.60;;
38557;SDS011;24333;42.626;23.308;2023-11-21T05:18:10;1.17;;;0.60;;
38557;SDS011;24333;42.626;23.308;2023-11-21T05:20:38;4.43;;;0.90;;
38557;SDS011;24333;42.626;23.308;2023-11-21T05:23:05;1.55;;;0.75;;
38557;SDS011;24333;42.626;23.308;2023-11-21T05:25:31;2.88;;;0.80;;
38557;SDS011;24333;42.626;23.308;2023-11-21T05:27:57;0.80;;;0.75;;
38557;SDS011;24333;42.626;23.308;2023-11-21T05:30:26;1.95;;;0.90;;
38557;SDS011;24333;42.626;23.308;2023-11-21T05:32:51;1.17;;;0.63;;
38557;SDS011;24333;42.626;23.308;2023-11-21T05:35:17;2.10;;;1.00;;
38557;SDS011;24333;42.626;23.308;2023-11-21T06:07:54;2.50;;;0.93;;
38557;SDS011;24333;42.626;23.308;2023-11-21T07:33:19;40.28;;;13.55;;
38557;SDS011;24333;42.626;23.308;2023-11-21T07:35:46;43.50;;;14.20;;
38557;SDS011;24333;42.626;23.308;2023-11-21T07:38:12;51.67;;;16.52;;
38557;SDS011;24333;42.626;23.308;2023-11-21T07:40:38;47.67;;;17.17;;
38557;SDS011;24333;42.626;23.308;2023-11-21T07:43:03;42.30;;;16.70;;
38557;SDS011;24333;42.626;23.308;2023-11-21T07:45:30;39.85;;;16.88;;
38557;SDS011;24333;42.626;23.308;2023-11-21T07:47:56;39.05;;;15.55;;
38557;SDS011;24333;42.626;23.308;2023-11-21T07:50:21;38.08;;;15.65;;
38557;SDS011;24333;42.626;23.308;2023-11-21T07:52:48;44.33;;;16.20;;
38557;SDS011;24333;42.626;23.308;2023-11-21T07:55:15;43.13;;;16.40;;
38557;SDS011;24333;42.626;23.308;2023-11-21T07:57:41;41.58;;;15.70;;
38557;SDS011;24333;42.626;23.308;2023-11-21T08:00:07;36.42;;;15.15;;
38557;SDS011;24333;42.626;23.308;2023-11-21T08:15:44;45.97;;;18.98;;
38557;SDS011;24333;42.626;23.308;2023-11-21T08:18:10;53.25;;;20.25;;
38557;SDS011;24333;42.626;23.308;2023-11-21T09:27:01;39.75;;;13.65;;
38557;SDS011;24333;42.626;23.308;2023-11-21T09:29:27;38.78;;;15.45;;
38557;SDS011;24333;42.626;23.308;2023-11-21T09:31:54;46.97;;;15.80;;
38557;SDS011;24333;42.626;23.308;2023-11-21T09:34:20;42.25;;;17.05;;
38557;SDS011;24333;42.626;23.308;2023-11-21T09:36:46;27.80;;;13.93;;
38557;SDS011;24333;42.626;23.308;2023-11-21T09:39:12;29.83;;;13.02;;
38557;SDS011;24333;42.626;23.308;2023-11-21T09:41:49;36.72;;;13.80;;
38557;SDS011;24333;42.626;23.308;2023-11-21T09:44:20;35.58;;;13.27;;
38557;SDS011;24333;42.626;23.308;2023-11-21T09:46:49;31.85;;;14.10;;
38557;SDS011;24333;42.626;23.308;2023-11-21T09:49:20;31.13;;;14.02;;
38557;SDS011;24333;42.626;23.308;2023-11-21T09:51:50;33.83;;;12.40;;
38557;SDS011;24333;42.626;23.308;2023-11-21T09:54:20;28.42;;;12.10;;
38557;SDS011;24333;42.626;23.308;2023-11-21T09:56:59;33.35;;;12.68;;
38557;SDS011;24333;42.626;23.308;2023-11-21T09:59:35;28.65;;;11.05;;
38557;SDS011;24333;42.626;23.308;2023-11-21T10:02:05;35.72;;;12.70;;
38557;SDS011;24333;42.626;23.308;2023-11-21T10:04:38;34.42;;;14.00;;
38557;SDS011;24333;42.626;23.308;2023-11-21T10:07:04;38.33;;;14.52;;
38557;SDS011;24333;42.626;23.308;2023-11-21T10:09:34;41.35;;;13.77;;
38557;SDS011;24333;42.626;23.308;2023-11-21T10:12:02;31.13;;;13.32;;
38557;SDS011;24333;42.626;23.308;2023-11-21T10:14:33;41.38;;;15.02;;
38557;SDS011;24333;42.626;23.308;2023-11-21T10:17:00;27.02;;;12.40;;
38557;SDS011;24333;42.626;23.308;2023-11-21T10:19:25;26.17;;;9.82;;
38557;SDS011;24333;42.626;23.308;2023-11-21T10:21:52;24.45;;;10.45;;
38557;SDS011;24333;42.626;23.308;2023-11-21T10:24:19;24.13;;;11.15;;
38557;SDS011;24333;42.626;23.308;2023-11-21T10:26:51;39.65;;;11.38;;
38557;SDS011;24333;42.626;23.308;2023-11-21T10:29:20;24.85;;;10.27;;
38557;SDS011;24333;42.626;23.308;2023-11-21T10:31:48;27.50;;;11.50;;
38557;SDS011;24333;42.626;23.308;2023-11-21T10:34:19;36.50;;;12.27;;
38557;SDS011;24333;42.626;23.308;2023-11-21T10:36:46;29.20;;;10.70;;
38557;SDS011;24333;42.626;23.308;2023-11-21T10:39:18;30.48;;;11.30;;
38557;SDS011;24333;42.626;23.308;2023-11-21T10:41:45;24.67;;;10.00;;
38557;SDS011;24333;42.626;23.308;2023-11-21T10:44:15;23.92;;;10.55;;
38557;SDS011;24333;42.626;23.308;2023-11-21T10:47:36;28.67;;;11.25;;
38557;SDS011;24333;42.626;23.308;2023-11-21T10:50:07;21.50;;;10.00;;
38557;SDS011;24333;42.626;23.308;2023-11-21T10:52:36;25.58;;;10.93;;
38557;SDS011;24333;42.626;23.308;2023-11-21T10:55:23;28.45;;;10.75;;
38557;SDS011;24333;42.626;23.308;2023-11-21T10:58:10;22.02;;;10.40;;
38557;SDS011;24333;42.626;23.308;2023-11-21T11:00:39;67.03;;;17.08;;
38557;SDS011;24333;42.626;23.308;2023-11-21T11:03:05;40.90;;;12.65;;
38557;SDS011;24333;42.626;23.308;2023-11-21T11:05:39;31.45;;;12.15;;
38557;SDS011;24333;42.626;23.308;2023-11-21T11:08:08;49.25;;;15.55;;
38557;SDS011;24333;42.626;23.308;2023-11-21T11:10:57;30.38;;;12.38;;
38557;SDS011;24333;42.626;23.308;2023-11-21T11:13:23;29.15;;;10.90;;
38557;SDS011;24333;42.626;23.308;2023-11-21T11:15:57;25.17;;;9.90;;
38557;SDS011;24333;42.626;23.308;2023-11-21T11:18:42;20.27;;;8.25;;
38557;SDS011;24333;42.626;23.308;2023-11-21T11:30:19;22.10;;;9.02;;
38557;SDS011;24333;42.626;23.308;2023-11-21T11:33:53;25.05;;;9.25;;
38557;SDS011;24333;42.626;23.308;2023-11-21T11:38:31;21.00;;;8.95;;
38557;SDS011;24333;42.626;23.308;2023-11-21T11:41:06;18.65;;;8.18;;
38557;SDS011;24333;42.626;23.308;2023-11-21T11:43:39;22.38;;;8.60;;
38557;SDS011;24333;42.626;23.308;2023-11-21T11:46:11;25.20;;;8.38;;
38557;SDS011;24333;42.626;23.308;2023-11-21T11:48:40;15.20;;;7.32;;
38557;SDS011;24333;42.626;23.308;2023-11-21T11:51:12;18.70;;;7.78;;
38557;SDS011;24333;42.626;23.308;2023-11-21T11:53:42;26.77;;;10.02;;
38557;SDS011;24333;42.626;23.308;2023-11-21T11:58:59;33.47;;;11.35;;
38557;SDS011;24333;42.626;23.308;2023-11-21T12:01:28;32.75;;;12.40;;
38557;SDS011;24333;42.626;23.308;2023-11-21T12:07:04;32.95;;;13.15;;
38557;SDS011;24333;42.626;23.308;2023-11-21T12:29:51;32.33;;;12.32;;
38557;SDS011;24333;42.626;23.308;2023-11-21T12:35:31;32.55;;;14.32;;
38557;SDS011;24333;42.626;23.308;2023-11-21T12:38:00;32.90;;;14.52;;
38557;SDS011;24333;42.626;23.308;2023-11-21T12:40:34;29.88;;;14.32;;
38557;SDS011;24333;42.626;23.308;2023-11-21T12:43:00;41.28;;;15.88;;
38557;SDS011;24333;42.626;23.308;2023-11-21T12:45:26;32.72;;;14.65;;
38557;SDS011;24333;42.626;23.308;2023-11-21T12:47:57;37.97;;;16.77;;
38557;SDS011;24333;42.626;23.308;2023-11-21T12:50:26;49.47;;;17.98;;
38557;SDS011;24333;42.626;23.308;2023-11-21T12:52:59;32.78;;;14.75;;
38557;SDS011;24333;42.626;23.308;2023-11-21T12:55:37;37.13;;;15.70;;
38557;SDS011;24333;42.626;23.308;2023-11-21T12:58:03;39.78;;;16.67;;
38557;SDS011;24333;42.626;23.308;2023-11-21T13:00:38;42.83;;;17.73;;
38557;SDS011;24333;42.626;23.308;2023-11-21T13:03:07;43.85;;;15.63;;
38557;SDS011;24333;42.626;23.308;2023-11-21T13:05:37;41.47;;;15.60;;
38557;SDS011;24333;42.626;23.308;2023-11-21T13:08:04;34.63;;;15.50;;
38557;SDS011;24333;42.626;23.308;2023-11-21T13:10:44;40.38;;;16.80;;
38557;SDS011;24333;42.626;23.308;2023-11-21T13:13:11;37.22;;;15.23;;
38557;SDS011;24333;42.626;23.308;2023-11-21T13:15:51;32.58;;;14.27;;
38557;SDS011;24333;42.626;23.308;2023-11-21T13:18:21;42.05;;;15.73;;
38557;SDS011;24333;42.626;23.308;2023-11-21T13:20:48;41.67;;;16.88;;
38557;SDS011;24333;42.626;23.308;2023-11-21T13:23:14;33.15;;;15.00;;
38557;SDS011;24333;42.626;23.308;2023-11-21T13:25:41;30.48;;;11.52;;
38557;SDS011;24333;42.626;23.308;2023-11-21T13:28:07;33.15;;;12.48;;
38557;SDS011;24333;42.626;23.308;2023-11-21T13:30:34;34.17;;;13.90;;
38557;SDS011;24333;42.626;23.308;2023-11-21T13:33:03;23.10;;;8.35;;
38557;SDS011;24333;42.626;23.308;2023-11-21T13:35:32;25.60;;;10.68;;
38557;SDS011;24333;42.626;23.308;2023-11-21T13:38:17;46.78;;;18.08;;
38557;SDS011;24333;42.626;23.308;2023-11-21T13:40:48;36.60;;;14.43;;
38557;SDS011;24333;42.626;23.308;2023-11-21T13:43:17;50.60;;;19.30;;
38557;SDS011;24333;42.626;23.308;2023-11-21T13:45:45;54.28;;;23.10;;
38557;SDS011;24333;42.626;23.308;2023-11-21T13:48:11;54.28;;;22.77;;
38557;SDS011;24333;42.626;23.308;2023-11-21T13:50:46;58.73;;;21.13;;
38557;SDS011;24333;42.626;23.308;2023-11-21T13:53:20;54.45;;;22.10;;
38557;SDS011;24333;42.626;23.308;2023-11-21T13:55:49;56.30;;;20.90;;
38557;SDS011;24333;42.626;23.308;2023-11-21T13:58:16;57.10;;;20.63;;
38557;SDS011;24333;42.626;23.308;2023-11-21T14:00:48;48.22;;;20.95;;
38557;SDS011;24333;42.626;23.308;2023-11-21T14:03:21;56.92;;;22.95;;
38557;SDS011;24333;42.626;23.308;2023-11-21T14:06:04;60.63;;;23.65;;
38557;SDS011;24333;42.626;23.308;2023-11-21T14:08:39;57.83;;;23.48;;
38557;SDS011;24333;42.626;23.308;2023-11-21T14:16:17;122.22;;;38.50;;
38557;SDS011;24333;42.626;23.308;2023-11-21T14:18:43;108.20;;;31.90;;
38557;SDS011;24333;42.626;23.308;2023-11-21T14:21:30;157.13;;;50.03;;
38557;SDS011;24333;42.626;23.308;2023-11-21T15:11:53;65.90;;;24.25;;
